.
WxDataArchive / Data Records for 2012-09-03
2012-09-02 September 2012 2012-09-04

Data Records for Monday, 03 September 2012

Time	Temp	Chill	HIndex	Humid	Dewpt	 Wind 	HiWind	WindDir	Rain 	Barom 
-----	----	-----	------	-----	-----	------	------	-------	-----	----- 
00:00	73.0	73.0	73.0	89	69.6	1	5	112	0.00	29.892 
00:05	73.0	73.0	73.0	89	69.6	1	4	112	0.00	29.892 
00:10	72.8	72.8	72.8	89	69.4	1	5	112	0.00	29.892 
00:15	72.7	72.7	72.7	89	69.3	1	5	112	0.00	29.891 
00:20	72.7	72.7	72.7	89	69.3	2	6	112	0.00	29.891 
00:25	72.5	72.5	72.5	89	69.1	3	5	90	0.00	29.891 
00:30	72.5	72.5	72.5	89	69.1	3	7	90	0.00	29.894 
00:35	72.5	72.5	72.5	89	69.1	2	7	90	0.00	29.894 
00:40	72.5	72.5	72.5	89	69.1	2	4	112	0.00	29.894 
00:45	72.5	72.5	72.5	89	69.1	1	4	112	0.00	29.891 
00:50	72.3	72.3	72.3	89	68.9	2	6	112	0.00	29.891 
00:55	72.3	72.3	72.3	90	69.2	1	3	112	0.00	29.891 
01:00	72.3	72.3	72.3	90	69.2	1	5	112	0.00	29.890 
01:05	72.1	72.1	72.1	90	69.0	1	4	135	0.00	29.890 
01:10	72.1	72.1	72.1	90	69.0	2	6	90	0.00	29.890 
01:15	72.0	72.0	72.0	90	68.9	1	3	90	0.00	29.885 
01:20	72.0	72.0	72.0	90	68.9	2	5	90	0.00	29.885 
01:25	72.0	72.0	72.0	90	68.9	3	9	90	0.00	29.885 
01:30	72.0	72.0	72.0	91	69.2	2	4	90	0.00	29.884 
01:35	71.8	71.8	71.8	91	69.0	1	4	90	0.00	29.884 
01:40	71.8	71.8	71.8	91	69.0	1	5	90	0.00	29.884 
01:45	71.6	71.6	71.6	91	68.8	1	5	90	0.00	29.888 
01:50	71.6	71.6	71.6	91	68.8	2	4	90	0.00	29.888 
01:55	71.6	71.6	71.6	91	68.8	2	5	112	0.00	29.888 
02:00	71.5	71.5	71.5	91	68.7	2	5	112	0.00	29.887 
02:05	71.5	71.5	71.5	91	68.7	1	6	112	0.00	29.887 
02:10	71.3	71.3	71.3	91	68.5	1	3	90	0.00	29.887 
02:15	71.3	71.3	71.3	91	68.5	2	5	90	0.00	29.881 
02:20	71.1	71.1	71.1	91	68.3	1	3	90	0.00	29.881 
02:25	71.1	71.1	71.1	91	68.3	0	2	90	0.00	29.881 
02:30	70.9	70.9	70.9	92	68.5	1	4	112	0.00	29.880 
02:35	70.9	70.9	70.9	92	68.5	0	2	112	0.00	29.880 
02:40	70.8	70.8	70.8	92	68.4	0	1	112	0.00	29.880 
02:45	70.8	70.8	70.8	92	68.4	0	1	112	0.00	29.879 
02:50	70.6	70.6	70.6	92	68.2	0	1	112	0.00	29.879 
02:55	70.6	70.6	70.6	92	68.2	0	1	112	0.00	29.879 
03:00	70.4	70.4	70.4	92	68.0	0	1	112	0.00	29.878 
03:05	70.3	70.3	70.3	92	67.9	0	2	112	0.00	29.878 
03:10	70.3	70.3	70.3	92	67.9	1	5	112	0.00	29.878 
03:15	70.1	70.1	70.1	92	67.7	1	3	112	0.00	29.869 
03:20	70.1	70.1	70.1	92	67.7	1	4	112	0.00	29.869 
03:25	69.9	69.9	69.9	92	67.5	1	3	112	0.00	29.869 
03:30	69.9	69.9	69.9	92	67.5	0	1	112	0.00	29.869 
03:35	69.8	69.8	69.8	92	67.4	0	3	112	0.00	29.869 
03:40	69.8	69.8	69.8	92	67.4	1	3	112	0.00	29.869 
03:45	69.6	69.6	69.6	92	67.2	1	3	112	0.00	29.869 
03:50	69.6	69.6	69.6	92	67.2	1	4	112	0.00	29.869 
03:55	69.6	69.6	69.6	92	67.2	1	4	112	0.00	29.869 
04:00	69.4	69.4	69.4	92	67.0	1	4	112	0.00	29.869 
04:05	69.4	69.4	69.4	92	67.0	2	5	90	0.00	29.869 
04:10	69.4	69.4	69.4	92	67.0	1	3	90	0.00	29.869 
04:15	69.3	69.3	69.3	92	66.9	1	3	90	0.00	29.868 
04:20	69.3	69.3	69.3	92	66.9	1	3	90	0.00	29.868 
04:25	69.1	69.1	69.1	92	66.7	1	4	90	0.00	29.868 
04:30	69.1	69.1	69.1	92	66.7	1	3	90	0.00	29.867 
04:35	68.9	68.9	68.9	92	66.5	1	4	90	0.00	29.867 
04:40	68.9	68.9	68.9	92	66.5	0	3	90	0.00	29.867 
04:45	69.1	69.1	69.1	92	66.7	1	5	112	0.00	29.865 
04:50	69.1	69.1	69.1	92	66.7	1	3	112	0.00	29.865 
04:55	69.1	69.1	69.1	92	66.7	2	6	90	0.00	29.865 
05:00	69.1	69.1	69.1	92	66.7	1	4	90	0.00	29.869 
05:05	69.1	69.1	69.1	92	66.7	1	5	90	0.00	29.869 
05:10	69.1	69.1	69.1	92	66.7	3	6	90	0.00	29.869 
05:15	69.1	69.1	69.1	92	66.7	2	6	112	0.00	29.868 
05:20	69.1	69.1	69.1	92	66.7	1	4	90	0.00	29.868 
05:25	69.1	69.1	69.1	92	66.7	1	4	90	0.00	29.868 
05:30	68.9	68.9	68.9	92	66.5	2	6	90	0.00	29.869 
05:35	68.9	68.9	68.9	92	66.5	1	3	90	0.00	29.869 
05:40	68.8	68.8	68.8	92	66.4	1	5	68	0.00	29.869 
05:45	68.8	68.8	68.8	92	66.4	0	1	68	0.00	29.868 
05:50	68.8	68.8	68.8	92	66.4	1	6	112	0.00	29.868 
05:55	68.8	68.8	68.8	92	66.4	0	2	112	0.00	29.868 
06:00	68.8	68.8	68.8	92	66.4	1	3	112	0.00	29.866 
06:05	68.8	68.8	68.8	92	66.4	0	2	112	0.00	29.866 
06:10	68.8	68.8	68.8	92	66.4	2	6	112	0.00	29.866 
06:15	68.8	68.8	68.8	92	66.4	2	4	112	0.00	29.868 
06:20	68.8	68.8	68.8	92	66.4	1	4	112	0.00	29.868 
06:25	68.8	68.8	68.8	92	66.4	1	4	112	0.00	29.868 
06:30	68.8	68.8	68.8	92	66.4	0	2	112	0.00	29.867 
06:35	68.8	68.8	68.8	92	66.4	1	5	112	0.00	29.867 
06:40	68.8	68.8	68.8	92	66.4	1	3	112	0.00	29.867 
06:45	68.8	68.8	68.8	92	66.4	1	3	112	0.00	29.867 
06:50	68.8	68.8	68.8	92	66.4	2	6	90	0.00	29.867 
06:55	68.8	68.8	68.8	92	66.4	1	3	90	0.00	29.867 
07:00	68.6	68.6	68.6	92	66.2	1	5	112	0.00	29.868 
07:05	68.6	68.6	68.6	92	66.2	1	4	112	0.00	29.868 
07:10	68.4	68.4	68.4	92	66.0	1	4	112	0.00	29.868 
07:15	68.4	68.4	68.4	93	66.3	1	5	112	0.00	29.880 
07:20	68.4	68.4	68.4	93	66.3	2	5	90	0.00	29.880 
07:25	68.4	68.4	68.4	93	66.3	1	3	90	0.00	29.880 
07:30	68.4	68.4	68.4	93	66.3	1	3	90	0.00	29.878 
07:35	68.4	68.4	68.4	93	66.3	1	5	90	0.00	29.878 
07:40	68.4	68.4	68.4	93	66.3	1	4	90	0.00	29.878 
07:45	68.4	68.4	68.4	93	66.3	1	4	90	0.00	29.880 
07:50	68.4	68.4	68.4	93	66.3	1	4	112	0.00	29.880 
07:55	68.4	68.4	68.4	93	66.3	1	5	112	0.00	29.880 
08:00	68.4	68.4	68.4	93	66.3	1	4	112	0.00	29.885 
08:05	68.6	68.6	68.6	93	66.5	1	4	112	0.00	29.885 
08:10	68.9	68.9	68.9	93	66.8	1	3	112	0.00	29.885 
08:15	69.1	69.1	69.1	93	67.0	0	2	112	0.00	29.890 
08:20	69.1	69.1	69.1	92	66.7	0	2	112	0.00	29.890 
08:25	69.3	69.3	69.3	92	66.9	1	3	112	0.00	29.890 
08:30	69.3	69.3	69.3	92	66.9	1	4	112	0.00	29.894 
08:35	69.3	69.3	69.3	92	66.9	2	4	112	0.00	29.894 
08:40	69.6	69.6	69.6	92	67.2	1	5	112	0.00	29.894 
08:45	69.9	69.9	69.9	92	67.5	1	3	90	0.00	29.894 
08:50	70.1	70.1	70.1	92	67.7	2	5	90	0.00	29.894 
08:55	70.6	70.6	70.6	91	67.8	1	3	90	0.00	29.894 
09:00	70.8	70.8	70.8	91	68.0	2	4	90	0.00	29.892 
09:05	70.9	70.9	70.9	90	67.8	2	5	112	0.00	29.892 
09:10	71.5	71.5	71.5	90	68.4	2	5	90	0.00	29.892 
09:15	71.6	71.6	71.6	89	68.2	1	3	90	0.00	29.892 
09:20	72.0	72.0	72.0	89	68.6	1	3	90	0.00	29.892 
09:25	72.1	72.1	72.1	89	68.7	1	5	90	0.00	29.892 
09:30	72.5	72.5	72.5	88	68.7	1	3	90	0.00	29.891 
09:35	72.8	72.8	72.8	88	69.0	1	4	90	0.00	29.891 
09:40	73.2	73.2	73.2	87	69.1	1	3	90	0.00	29.891 
09:45	73.3	73.3	73.3	87	69.2	1	5	90	0.00	29.888 
09:50	73.7	73.7	73.7	87	69.6	1	3	90	0.00	29.888 
09:55	74.0	74.0	74.0	86	69.5	1	4	90	0.00	29.888 
10:00	74.6	74.6	74.6	86	70.1	0	3	90	0.00	29.885 
10:05	74.9	74.9	74.9	85	70.1	1	3	90	0.00	29.885 
10:10	75.6	75.6	75.8	86	71.1	0	2	90	0.00	29.885 
10:15	75.8	75.8	76.4	83	70.3	2	5	90	0.00	29.882 
10:20	76.5	76.5	77.7	81	70.2	2	7	90	0.00	29.882 
10:25	77.2	77.2	78.9	80	70.5	2	5	90	0.00	29.882 
10:30	77.7	77.7	79.7	78	70.3	1	5	90	0.00	29.879 
10:35	78.3	78.3	80.7	77	70.5	2	6	90	0.00	29.879 
10:40	78.6	78.6	81.2	76	70.4	3	7	90	0.00	29.879 
10:45	78.6	78.6	81.1	75	70.0	3	7	90	0.00	29.879 
10:50	79.0	79.0	81.9	76	70.8	2	5	68	0.00	29.879 
10:55	79.2	79.2	82.2	76	71.0	3	5	68	0.00	29.879 
11:00	79.4	79.4	82.6	76	71.2	2	5	90	0.00	29.877 
11:05	79.4	79.4	82.5	75	70.8	3	9	90	0.00	29.877 
11:10	79.6	79.6	83.0	76	71.3	2	4	90	0.00	29.877 
11:15	80.1	80.1	83.8	75	71.4	2	6	90	0.00	29.871 
11:20	80.7	80.7	84.9	75	72.0	2	5	90	0.00	29.871 
11:25	81.1	81.1	85.3	73	71.6	2	7	90	0.00	29.871 
11:30	81.2	81.2	85.5	73	71.7	2	10	112	0.00	29.877 
11:35	81.8	81.8	86.7	73	72.3	2	4	112	0.00	29.877 
11:40	81.6	81.6	86.1	72	71.7	3	10	90	0.00	29.877 
11:45	81.6	81.6	86.5	74	72.5	3	6	112	0.00	29.875 
11:50	81.6	81.6	86.3	73	72.1	1	5	90	0.00	29.875 
11:55	81.4	81.4	85.9	73	71.9	2	5	112	0.00	29.875 
12:00	81.6	81.6	85.9	71	71.3	2	5	90	0.00	29.872 
12:05	82.2	82.2	87.0	71	71.8	2	5	90	0.00	29.872 
12:10	82.6	82.6	87.8	71	72.2	1	4	90	0.00	29.872 
12:15	82.6	82.6	87.6	70	71.8	2	7	90	0.00	29.869 
12:20	83.0	83.0	88.7	71	72.6	2	5	90	0.00	29.869 
12:25	83.2	83.2	88.5	69	71.9	3	6	90	0.00	29.869 
12:30	83.2	83.2	88.5	69	71.9	3	6	68	0.00	29.868 
12:35	83.6	83.6	88.7	67	71.5	2	5	90	0.00	29.868 
12:40	83.8	83.8	88.6	65	70.7	3	9	68	0.00	29.868 
12:45	83.6	83.6	88.7	67	71.5	4	7	90	0.00	29.865 
12:50	83.0	83.0	87.6	67	70.9	4	7	90	0.00	29.865 
12:55	82.8	82.8	87.7	69	71.6	3	6	90	0.00	29.865 
13:00	83.0	83.0	87.6	67	70.9	3	7	90	0.00	29.869 
13:05	83.4	83.4	87.8	65	70.4	3	10	68	0.00	29.869 
13:10	83.6	83.6	88.2	65	70.6	3	6	112	0.00	29.869 
13:15	84.0	84.0	88.6	64	70.5	3	7	90	0.00	29.868 
13:20	84.0	84.0	88.9	65	70.9	3	6	112	0.00	29.868 
13:25	83.6	83.6	89.0	68	71.9	3	6	90	0.00	29.868 
13:30	83.8	83.8	89.1	67	71.6	2	5	112	0.00	29.864 
13:35	84.3	84.3	89.2	64	70.8	2	6	90	0.00	29.864 
13:40	84.1	84.1	88.8	64	70.6	3	7	90	0.00	29.864 
13:45	84.1	84.1	89.4	66	71.5	3	8	90	0.00	29.864 
13:50	84.1	84.1	89.1	65	71.0	3	6	90	0.00	29.864 
13:55	83.8	83.8	88.3	64	70.3	3	9	90	0.00	29.864 
14:00	83.4	83.4	87.6	64	69.9	3	8	90	0.00	29.864 
14:05	83.4	83.4	87.6	64	69.9	2	7	90	0.00	29.864 
14:10	83.2	83.2	87.2	64	69.7	3	7	68	0.00	29.864 
14:15	82.8	82.8	87.2	67	70.7	3	8	90	0.00	29.867 
14:20	82.8	82.8	87.0	66	70.3	2	5	68	0.00	29.867 
14:25	82.8	82.8	87.0	66	70.3	3	7	90	0.00	29.867 
14:30	82.8	82.8	87.2	67	70.7	3	5	90	0.00	29.865 
14:35	83.0	83.0	87.1	65	70.0	2	9	90	0.00	29.865 
14:40	83.0	83.0	87.1	65	70.0	2	7	90	0.00	29.865 
14:45	83.2	83.2	87.2	64	69.7	3	6	90	0.00	29.868 
14:50	83.0	83.0	87.3	66	70.4	3	8	68	0.00	29.868 
14:55	83.4	83.4	88.1	66	70.8	3	9	90	0.00	29.868 
15:00	83.4	83.4	87.8	65	70.4	3	9	90	0.00	29.866 
15:05	83.4	83.4	88.1	66	70.8	2	6	68	0.00	29.866 
15:10	83.2	83.2	88.0	67	71.1	2	6	90	0.00	29.866 
15:15	83.0	83.0	87.6	67	70.9	2	5	90	0.00	29.863 
15:20	83.2	83.2	87.7	66	70.6	2	5	90	0.00	29.863 
15:25	83.6	83.6	88.2	65	70.6	2	4	90	0.00	29.863 
15:30	83.6	83.6	88.2	65	70.6	2	5	112	0.00	29.854 
15:35	83.4	83.4	87.8	65	70.4	1	4	112	0.00	29.854 
15:40	84.0	84.0	88.6	64	70.5	2	4	68	0.00	29.854 
15:45	84.3	84.3	88.6	62	69.8	3	10	90	0.00	29.846 
15:50	84.7	84.7	88.7	60	69.2	3	6	68	0.00	29.846 
15:55	85.1	85.1	88.8	58	68.6	1	3	112	0.00	29.846 
16:00	85.7	85.7	90.5	60	70.2	1	3	68	0.00	29.840 
16:05	85.7	85.7	90.5	60	70.2	3	7	68	0.00	29.840 
16:10	85.5	85.5	89.8	59	69.5	2	5	90	0.00	29.840 
16:15	85.5	85.5	89.5	58	69.0	1	3	90	0.00	29.838 
16:20	85.3	85.3	89.8	60	69.8	1	3	68	0.00	29.838 
16:25	85.3	85.3	90.5	62	70.8	1	5	180	0.00	29.838 
16:30	85.3	85.3	90.5	62	70.8	1	6	68	0.00	29.842 
16:35	85.5	85.5	90.5	61	70.5	2	6	135	0.00	29.842 
16:40	85.5	85.5	89.8	59	69.5	1	4	90	0.00	29.842 
16:45	85.7	85.7	89.9	58	69.2	0	3	112	0.00	29.844 
16:50	85.5	85.5	89.8	59	69.5	1	3	112	0.00	29.844 
16:55	85.1	85.1	89.1	59	69.1	1	3	112	0.00	29.844 
17:00	84.7	84.7	88.7	60	69.2	1	2	112	0.00	29.843 
17:05	84.1	84.1	88.5	63	70.1	2	4	68	0.00	29.843 
17:10	84.1	84.1	88.2	62	69.6	2	5	68	0.00	29.843 
17:15	84.5	84.5	89.0	62	70.0	1	3	112	0.00	29.832 
17:20	84.7	84.7	89.0	61	69.7	2	10	90	0.00	29.832 
17:25	84.7	84.7	89.6	63	70.7	2	4	68	0.00	29.832 
17:30	84.5	84.5	88.7	61	69.5	3	6	68	0.00	29.825 
17:35	84.5	84.5	89.6	64	71.0	2	4	68	0.00	29.825 
17:40	84.3	84.3	88.9	63	70.3	2	6	90	0.00	29.825 
17:45	84.1	84.1	88.5	63	70.1	2	5	68	0.00	29.827 
17:50	84.0	84.0	88.4	63	70.0	2	4	68	0.00	29.827 
17:55	84.0	84.0	88.6	64	70.5	1	4	90	0.00	29.827 
18:00	84.0	84.0	88.6	64	70.5	1	3	90	0.00	29.829 
18:05	83.8	83.8	88.3	64	70.3	2	4	90	0.00	29.829 
18:10	83.8	83.8	88.0	63	69.8	1	3	90	0.00	29.829 
18:15	84.0	84.0	88.9	65	70.9	1	4	135	0.00	29.832 
18:20	83.8	83.8	89.1	67	71.6	2	6	112	0.00	29.832 
18:25	83.0	83.0	87.6	67	70.9	3	10	90	0.00	29.832 
18:30	82.2	82.2	86.4	68	70.6	2	5	90	0.00	29.834 
18:35	81.8	81.8	85.7	68	70.2	2	6	90	0.00	29.834 
18:40	81.6	81.6	85.3	68	70.0	3	7	68	0.00	29.834 
18:45	81.4	81.4	84.8	67	69.4	2	5	90	0.00	29.834 
18:50	81.4	81.4	85.0	68	69.8	2	6	68	0.00	29.834 
18:55	81.4	81.4	85.0	68	69.8	2	4	68	0.00	29.834 
19:00	81.2	81.2	84.8	69	70.0	1	3	112	0.00	29.835 
19:05	81.1	81.1	84.6	69	69.9	1	3	112	0.00	29.835 
19:10	81.1	81.1	84.6	69	69.9	1	3	90	0.00	29.835 
19:15	80.9	80.9	84.3	69	69.8	0	2	90	0.00	29.837 
19:20	80.9	80.9	84.5	70	70.2	1	3	90	0.00	29.837 
19:25	80.7	80.7	84.1	70	70.0	1	3	90	0.00	29.837 
19:30	80.7	80.7	84.3	71	70.4	1	2	90	0.00	29.842 
19:35	80.5	80.5	83.9	71	70.2	1	3	90	0.00	29.842 
19:40	80.3	80.3	83.6	71	70.0	1	4	90	0.00	29.842 
19:45	80.1	80.1	83.4	72	70.2	0	2	90	0.00	29.841 
19:50	79.9	79.9	83.1	73	70.4	0	2	90	0.00	29.841 
19:55	79.8	79.8	83.1	74	70.8	0	1	90	0.00	29.841 
20:00	79.6	79.6	82.8	75	71.0	0	2	90	0.00	29.838 
20:05	79.6	79.6	83.0	76	71.3	0	3	90	0.00	29.838 
20:10	79.4	79.4	82.7	77	71.5	0	2	90	0.00	29.838 
20:15	79.2	79.2	82.3	77	71.3	1	3	90	0.00	29.842 
20:20	79.0	79.0	82.0	77	71.2	1	3	90	0.00	29.842 
20:25	78.8	78.8	81.7	78	71.3	0	1	90	0.00	29.842 
20:30	78.6	78.6	81.3	78	71.1	0	0	---	0.00	29.848 
20:35	78.5	78.5	81.1	78	71.1	0	1	90	0.00	29.848 
20:40	78.3	78.3	80.8	78	70.9	0	1	90	0.00	29.848 
20:45	78.1	78.1	80.5	79	71.0	0	1	90	0.00	29.851 
20:50	77.9	77.9	80.1	80	71.2	0	1	90	0.00	29.851 
20:55	77.7	77.7	79.8	80	71.0	0	1	90	0.00	29.851 
21:00	77.7	77.7	79.8	81	71.4	0	1	90	0.00	29.854 
21:05	77.6	77.6	79.6	81	71.3	0	1	90	0.00	29.854 
21:10	77.4	77.4	79.2	82	71.5	0	2	90	0.00	29.854 
21:15	77.2	77.2	78.8	83	71.6	0	2	90	0.00	29.862 
21:20	77.0	77.0	78.5	83	71.4	0	3	90	0.00	29.862 
21:25	76.8	76.8	78.1	84	71.6	1	2	90	0.00	29.862 
21:30	76.7	76.7	77.9	84	71.5	0	3	90	0.00	29.864 
21:35	76.5	76.5	77.5	84	71.3	1	2	90	0.00	29.864 
21:40	76.3	76.3	77.1	85	71.4	1	3	90	0.00	29.864 
21:45	76.1	76.1	76.7	85	71.2	1	4	90	0.00	29.871 
21:50	76.0	76.0	76.5	86	71.5	0	1	90	0.00	29.871 
21:55	75.8	75.8	76.1	86	71.3	0	2	90	0.00	29.871 
22:00	75.6	75.6	75.6	87	71.4	0	1	90	0.00	29.876 
22:05	75.4	75.4	75.3	87	71.2	0	1	90	0.00	29.876 
22:10	75.4	75.4	75.3	87	71.2	0	1	90	0.00	29.876 
22:15	75.3	75.3	75.1	87	71.2	0	1	90	0.00	29.874 
22:20	75.1	75.1	74.6	88	71.3	0	2	90	0.00	29.874 
22:25	74.9	74.9	74.9	88	71.1	0	2	90	0.00	29.874 
22:30	74.9	74.9	74.9	88	71.1	0	1	90	0.00	29.877 
22:35	74.7	74.7	74.7	88	70.9	0	0	---	0.00	29.877 
22:40	74.6	74.6	74.6	88	70.8	0	0	---	0.00	29.877 
22:45	74.4	74.4	74.4	89	70.9	0	0	---	0.00	29.877 
22:50	74.4	74.4	74.4	89	70.9	0	0	---	0.00	29.877 
22:55	74.2	74.2	74.2	89	70.7	0	0	---	0.00	29.877 
23:00	74.0	74.0	74.0	90	70.9	0	0	---	0.00	29.882 
23:05	74.0	74.0	74.0	90	70.9	0	0	---	0.00	29.882 
23:10	73.9	73.9	73.9	90	70.8	0	0	---	0.00	29.882 
23:15	73.7	73.7	73.7	90	70.6	0	0	---	0.00	29.877 
23:20	73.7	73.7	73.7	90	70.6	0	0	---	0.00	29.877 
23:25	73.5	73.5	73.5	90	70.4	0	0	---	0.00	29.877 
23:30	73.5	73.5	73.5	91	70.7	0	0	---	0.00	29.879 
23:35	73.3	73.3	73.3	91	70.5	0	0	---	0.00	29.879 
23:40	73.3	73.3	73.3	91	70.5	0	0	---	0.00	29.879 
23:45	73.2	73.2	73.2	91	70.4	0	0	---	0.00	29.879 
23:50	73.0	73.0	73.0	91	70.2	0	0	---	0.00	29.879 
23:55	73.0	73.0	73.0	92	70.5	0	0	---	0.00	29.879 

CoCoRaHS
IN-AL-39
A2 Web Hosting
Creative Commons License
GoDaddy
search engine by freefind advanced

loaded 2018-11-17 05:43:35 • last modified 2010-11-18 10:43:29
Privacy PolicyDisclaimer
• wx.awcolley.com is powered by PmWiki v.2002016 •
• all content (unless otherwise noted) © 2018 A W Colley